Time;durP1;ratioP1;P1;durP2;ratioP2;P2;SDS_P1;SDS_P2;PMS_P1;PMS_P2;Temp;Humidity;BMP_temperature;BMP_pressure;BME280_temperature;BME280_humidity;BME280_pressure;Samples;Min_cycle;Max_cycle;Signal;HPM_P1;HPM_P2
2022/05/16 00:01:50;;;;;;;10.15;4.38;;;;;;;20.00;43.42;101235.09;5015943;28;20033;-62
2022/05/16 00:04:16;;;;;;;11.90;4.18;;;;;;;19.96;43.32;101233.19;5013957;28;20042;-62
2022/05/16 00:06:41;;;;;;;9.48;4.13;;;;;;;19.98;43.43;101225.28;5012828;28;20488;-62
2022/05/16 00:09:07;;;;;;;10.20;4.10;;;;;;;19.97;43.74;101226.44;5016281;28;20084;-62
2022/05/16 00:11:33;;;;;;;10.30;4.55;;;;;;;19.96;43.90;101225.56;5033106;28;20492;-62
2022/05/16 00:13:58;;;;;;;8.48;4.10;;;;;;;19.95;43.95;101225.88;5033488;28;20035;-62
2022/05/16 00:16:23;;;;;;;12.40;4.38;;;;;;;19.89;43.71;101224.31;5023066;28;20414;-62
2022/05/16 00:18:58;;;;;;;11.38;4.10;;;;;;;19.91;43.90;101224.81;5012936;28;20030;-61
2022/05/16 00:21:23;;;;;;;10.95;3.88;;;;;;;19.90;44.24;101224.00;5013850;28;20048;-61
2022/05/16 00:23:48;;;;;;;11.25;4.60;;;;;;;19.81;43.82;101226.69;5013518;28;20025;-62
2022/05/16 00:26:13;;;;;;;11.85;4.28;;;;;;;19.88;44.14;101211.34;5010708;28;20068;-61
2022/05/16 00:28:39;;;;;;;10.07;4.60;;;;;;;19.82;44.22;101204.97;5012184;28;20477;-62
2022/05/16 00:31:04;;;;;;;10.05;4.65;;;;;;;19.82;44.04;101217.06;5013501;28;20037;-64
2022/05/16 00:33:30;;;;;;;11.75;4.20;;;;;;;19.73;44.02;101210.47;5012446;28;20088;-62
2022/05/16 00:35:55;;;;;;;12.45;4.30;;;;;;;19.68;44.33;101210.53;5011491;28;20136;-62
2022/05/16 00:38:20;;;;;;;13.10;4.25;;;;;;;19.71;44.08;101207.13;5019395;28;20026;-62
2022/05/16 00:40:46;;;;;;;9.88;4.03;;;;;;;19.65;44.28;101205.53;5018163;28;20382;-62
2022/05/16 00:43:13;;;;;;;11.55;4.43;;;;;;;19.62;44.40;101211.78;5012125;28;20036;-61
2022/05/16 00:45:39;;;;;;;12.32;4.35;;;;;;;19.61;44.42;101210.06;5012359;28;20053;-62
2022/05/16 00:48:05;;;;;;;12.40;4.72;;;;;;;19.58;44.83;101210.69;5011332;28;20034;-61
2022/05/16 00:50:33;;;;;;;20.38;4.32;;;;;;;19.51;44.82;101215.84;5011712;28;20061;-61
2022/05/16 00:52:58;;;;;;;14.07;4.20;;;;;;;19.55;44.91;101217.75;5013887;28;20029;-61
2022/05/16 00:55:32;;;;;;;9.90;4.50;;;;;;;19.52;45.00;101209.06;5018871;28;20038;-61
2022/05/16 00:58:01;;;;;;;11.88;4.55;;;;;;;19.50;45.13;101208.56;5016265;28;20030;-61
2022/05/16 01:00:35;;;;;;;13.43;5.28;;;;;;;19.44;45.17;101202.16;5009750;28;20552;-61
2022/05/16 01:05:50;;;;;;;9.23;4.55;;;;;;;19.44;45.11;101190.06;5011794;28;20045;-62
2022/05/16 01:08:18;;;;;;;9.00;4.20;;;;;;;19.41;45.52;101180.22;5012312;28;20029;-61
2022/05/16 01:10:44;;;;;;;10.70;4.47;;;;;;;19.37;45.63;101199.72;5011929;28;20374;-60
2022/05/16 01:13:10;;;;;;;12.10;4.88;;;;;;;19.27;45.54;101193.41;5012031;28;20082;-61
2022/05/16 01:15:41;;;;;;;12.43;4.47;;;;;;;19.26;45.93;101198.19;5011600;28;20106;-61
2022/05/16 01:18:10;;;;;;;9.02;4.65;;;;;;;19.30;45.65;101188.00;5013108;28;20052;-61
2022/05/16 01:20:48;;;;;;;15.57;5.15;;;;;;;19.25;45.88;101196.50;5011999;28;20489;-61
2022/05/16 01:23:19;;;;;;;12.98;4.70;;;;;;;19.21;46.05;101201.06;5011958;28;20084;-61
2022/05/16 01:25:44;;;;;;;9.33;5.03;;;;;;;19.24;45.75;101211.72;5012596;28;20036;-61
2022/05/16 01:28:10;;;;;;;12.73;5.35;;;;;;;19.13;46.27;101204.56;5013955;28;20033;-62
2022/05/16 01:30:46;;;;;;;12.15;4.82;;;;;;;19.06;46.38;101204.94;5009614;28;20489;-62
2022/05/16 01:33:12;;;;;;;11.05;4.72;;;;;;;19.06;46.46;101204.09;4992564;28;20074;-62
2022/05/16 01:35:37;;;;;;;10.30;4.63;;;;;;;19.10;46.35;101196.75;5003104;28;20080;-62
2022/05/16 01:40:48;;;;;;;9.15;4.43;;;;;;;18.98;46.91;101197.19;5010628;28;20068;-62
2022/05/16 01:43:18;;;;;;;11.07;4.60;;;;;;;18.97;46.83;101201.09;5011047;28;20044;-62
2022/05/16 01:45:44;;;;;;;10.02;5.10;;;;;;;18.87;46.96;101195.63;5011644;28;20025;-62
2022/05/16 01:48:14;;;;;;;10.68;4.90;;;;;;;18.84;47.37;101190.59;5011983;28;20030;-62
2022/05/16 01:50:40;;;;;;;9.13;4.88;;;;;;;18.84;47.39;101188.63;5011239;28;20041;-62
2022/05/16 01:53:06;;;;;;;10.18;4.50;;;;;;;18.82;47.31;101196.53;5011149;28;20061;-61
2022/05/16 01:55:31;;;;;;;10.48;4.95;;;;;;;18.74;47.38;101185.94;5012565;28;20076;-62
2022/05/16 01:57:56;;;;;;;11.30;5.07;;;;;;;18.72;47.75;101191.03;5010916;28;20481;-61
2022/05/16 02:00:22;;;;;;;9.65;5.10;;;;;;;18.73;47.60;101180.63;5009866;28;20036;-62
2022/05/16 02:02:47;;;;;;;10.43;5.20;;;;;;;18.75;47.66;101175.53;5011542;28;20045;-61
2022/05/16 02:05:16;;;;;;;12.05;5.25;;;;;;;18.68;47.89;101175.88;5010580;28;20073;-62
2022/05/16 02:07:41;;;;;;;10.88;4.80;;;;;;;18.66;47.86;101180.94;5013254;28;20038;-61
2022/05/16 02:10:08;;;;;;;9.55;4.95;;;;;;;18.66;48.09;101175.31;5012861;28;20041;-62
2022/05/16 02:12:34;;;;;;;9.43;4.65;;;;;;;18.68;47.95;101170.25;5012264;28;20485;-62
2022/05/16 02:14:59;;;;;;;12.25;5.43;;;;;;;18.68;48.10;101173.06;5033240;28;20060;-62
2022/05/16 02:17:24;;;;;;;11.32;5.05;;;;;;;18.72;48.01;101162.06;5038293;28;20025;-62
2022/05/16 02:19:49;;;;;;;12.60;5.53;;;;;;;18.70;47.87;101156.72;5037586;28;20032;-62
2022/05/16 02:24:59;;;;;;;8.02;4.43;;;;;;;18.70;47.96;101162.34;5017776;28;20056;-62
2022/05/16 02:27:24;;;;;;;10.00;4.60;;;;;;;18.73;47.40;101153.31;5021923;28;20447;-62
2022/05/16 02:29:49;;;;;;;13.43;4.88;;;;;;;18.76;47.47;101152.72;5025359;28;20450;-61
2022/05/16 02:32:14;;;;;;;9.85;4.80;;;;;;;18.78;47.38;101158.88;5016225;28;20038;-61
2022/05/16 02:34:41;;;;;;;10.13;4.70;;;;;;;18.82;47.49;101143.09;5017493;28;20393;-62
2022/05/16 02:37:07;;;;;;;12.07;4.80;;;;;;;18.74;47.72;101145.72;5018016;28;20026;-62
2022/05/16 02:39:33;;;;;;;10.40;4.72;;;;;;;18.73;47.63;101142.09;5017612;28;20088;-62
2022/05/16 02:41:59;;;;;;;10.65;4.65;;;;;;;18.82;47.56;101147.88;5023039;28;20029;-61
2022/05/16 02:44:25;;;;;;;8.15;4.95;;;;;;;18.81;47.65;101135.78;5024532;28;20065;-62
2022/05/16 02:46:50;;;;;;;12.50;4.90;;;;;;;18.86;47.85;101137.69;5017603;28;20180;-61
2022/05/16 02:49:21;;;;;;;9.90;5.03;;;;;;;18.84;47.70;101132.38;5017159;28;20017;-61
2022/05/16 02:51:46;;;;;;;9.15;4.60;;;;;;;18.92;47.42;101127.22;5017823;28;20045;-62
2022/05/16 02:54:11;;;;;;;11.05;4.80;;;;;;;18.85;47.87;101134.03;5017546;28;20037;-62
2022/05/16 02:56:36;;;;;;;8.88;5.00;;;;;;;18.87;47.57;101134.59;5014700;28;20037;-62
2022/05/16 02:59:02;;;;;;;10.93;4.70;;;;;;;18.85;47.64;101119.16;5017047;28;20029;-62
2022/05/16 03:01:28;;;;;;;16.52;4.95;;;;;;;18.73;48.28;101122.41;5015025;28;20510;-62
2022/05/16 03:03:54;;;;;;;9.82;4.80;;;;;;;18.72;48.21;101120.72;4998449;28;20046;-62
2022/05/16 03:06:19;;;;;;;10.55;4.22;;;;;;;18.69;48.11;101110.06;4998181;28;20493;-62
2022/05/16 03:08:50;;;;;;;11.32;4.78;;;;;;;18.72;48.05;101109.47;4997342;28;20034;-61
2022/05/16 03:11:16;;;;;;;11.27;5.03;;;;;;;18.65;48.38;101109.81;5006759;28;20038;-61
2022/05/16 03:13:41;;;;;;;10.38;4.53;;;;;;;18.67;48.25;101106.72;5017806;28;20335;-62
2022/05/16 03:16:06;;;;;;;16.00;5.03;;;;;;;18.64;48.14;101107.31;5017549;28;20049;-61
2022/05/16 03:18:32;;;;;;;13.45;5.07;;;;;;;18.62;48.55;101116.03;5017636;28;20572;-61
2022/05/16 03:20:58;;;;;;;8.40;4.80;;;;;;;18.61;48.90;101120.00;5018042;28;20113;-61
2022/05/16 03:23:24;;;;;;;11.65;4.63;;;;;;;18.59;48.71;101121.44;5017838;28;20022;-61
2022/05/16 03:25:49;;;;;;;11.07;5.38;;;;;;;18.56;48.57;101119.22;5015752;28;20099;-61
2022/05/16 03:28:15;;;;;;;11.32;4.82;;;;;;;18.59;48.89;101110.19;5013674;28;20466;-62
2022/05/16 03:30:40;;;;;;;10.07;4.72;;;;;;;18.58;48.99;101123.41;5018814;28;20571;-62
2022/05/16 03:33:06;;;;;;;8.88;4.43;;;;;;;18.54;49.12;101118.69;5014423;28;20037;-62
2022/05/16 03:35:32;;;;;;;11.93;4.78;;;;;;;18.50;49.48;101126.88;5013707;28;20042;-61
2022/05/16 03:37:58;;;;;;;9.32;5.25;;;;;;;18.45;49.65;101123.28;5014327;28;20037;-62
2022/05/16 03:43:08;;;;;;;10.25;4.72;;;;;;;18.33;50.02;101118.09;5014252;28;20125;-61
2022/05/16 03:45:36;;;;;;;34.08;10.38;;;;;;;18.33;49.97;101118.09;5013181;28;20120;-62
2022/05/16 03:48:02;;;;;;;14.57;5.55;;;;;;;18.36;50.04;101120.31;5012673;28;20025;-62
2022/05/16 03:50:27;;;;;;;11.63;5.03;;;;;;;18.33;50.15;101113.31;5012661;28;20109;-62
2022/05/16 03:52:52;;;;;;;13.38;5.13;;;;;;;18.25;50.54;101116.78;5014894;28;20022;-61
2022/05/16 03:55:18;;;;;;;8.57;4.63;;;;;;;18.27;50.37;101124.91;5013228;28;20112;-61
2022/05/16 03:57:43;;;;;;;11.93;4.47;;;;;;;18.22;50.47;101117.38;5012606;28;20117;-61
2022/05/16 04:00:12;;;;;;;10.35;4.63;;;;;;;18.14;50.90;101118.84;5014333;28;20040;-61
2022/05/16 04:02:39;;;;;;;10.77;4.82;;;;;;;18.25;50.42;101111.16;5014117;28;20065;-62
2022/05/16 04:05:05;;;;;;;9.30;4.75;;;;;;;18.22;50.44;101114.56;5013379;28;20069;-62
2022/05/16 04:07:31;;;;;;;9.07;4.57;;;;;;;18.23;50.32;101110.59;5011852;28;20034;-61
2022/05/16 04:09:56;;;;;;;10.55;4.80;;;;;;;18.26;50.53;101106.38;5013589;28;20025;-61
2022/05/16 04:12:22;;;;;;;10.50;4.95;;;;;;;18.14;50.97;101110.44;5014949;28;20074;-61
2022/05/16 04:14:49;;;;;;;13.48;5.05;;;;;;;18.17;50.99;101122.22;5034164;28;20030;-61
2022/05/16 04:17:23;;;;;;;9.23;4.60;;;;;;;18.17;50.81;101120.25;5033575;28;20029;-61
2022/05/16 04:19:48;;;;;;;8.30;4.78;;;;;;;18.08;51.40;101125.69;5033125;28;20036;-61
2022/05/16 04:22:13;;;;;;;10.30;5.18;;;;;;;18.07;51.47;101125.97;5020619;28;20038;-62
2022/05/16 04:24:39;;;;;;;10.27;4.80;;;;;;;18.13;51.24;101131.22;5012046;28;20038;-61
2022/05/16 04:27:05;;;;;;;11.45;4.78;;;;;;;18.18;50.54;101123.88;5014920;28;20041;-62
2022/05/16 04:29:33;;;;;;;6.47;4.57;;;;;;;18.11;51.43;101118.59;5033385;28;20033;-61
2022/05/16 04:31:58;;;;;;;10.27;4.68;;;;;;;18.13;51.17;101125.63;5010991;28;20125;-61
2022/05/16 04:34:24;;;;;;;9.65;4.68;;;;;;;18.14;51.36;101123.63;5012277;28;20566;-62
2022/05/16 04:36:49;;;;;;;8.68;4.60;;;;;;;18.14;51.39;101123.63;5013659;28;20042;-61
2022/05/16 04:39:14;;;;;;;12.40;5.03;;;;;;;18.17;51.57;101131.47;5010884;28;20052;-61
2022/05/16 04:44:36;;;;;;;10.80;4.95;;;;;;;18.16;52.19;101129.81;5012185;28;20508;-61
2022/05/16 04:47:01;;;;;;;8.73;4.65;;;;;;;18.19;52.38;101125.56;5012580;28;20038;-61
2022/05/16 04:49:26;;;;;;;13.65;5.47;;;;;;;18.20;52.67;101130.06;5013042;28;20022;-61
2022/05/16 04:51:52;;;;;;;9.13;5.05;;;;;;;18.22;52.55;101125.78;5011874;28;20034;-61
2022/05/16 04:54:17;;;;;;;9.15;4.88;;;;;;;18.24;52.61;101131.13;5010455;28;20429;-61
2022/05/16 04:56:42;;;;;;;10.27;5.53;;;;;;;18.29;51.96;101131.91;5023617;28;20374;-61
2022/05/16 04:59:08;;;;;;;11.35;5.15;;;;;;;18.40;52.15;101141.06;5012814;28;20022;-61
2022/05/16 05:01:34;;;;;;;10.73;5.30;;;;;;;18.34;51.52;101143.06;5008971;28;20026;-61
2022/05/16 05:03:59;;;;;;;12.10;5.25;;;;;;;18.34;51.79;101137.47;5012541;28;20034;-62
2022/05/16 05:06:24;;;;;;;11.88;5.20;;;;;;;18.43;50.85;101131.19;5012616;28;20040;-61
2022/05/16 05:08:50;;;;;;;9.45;4.90;;;;;;;18.53;50.53;101133.88;5011378;28;20362;-61
2022/05/16 05:16:45;;;;;;;10.52;5.00;;;;;;;18.67;50.21;101142.41;5006857;28;20137;-62
2022/05/16 05:19:10;;;;;;;9.18;4.68;;;;;;;18.66;49.84;101127.50;4993720;28;20121;-62
2022/05/16 05:21:35;;;;;;;10.52;4.97;;;;;;;18.71;49.69;101140.72;5009699;28;20414;-62
2022/05/16 05:24:01;;;;;;;8.70;4.38;;;;;;;18.74;49.83;101135.31;5011573;28;20069;-61
2022/05/16 05:26:26;;;;;;;11.30;4.72;;;;;;;18.72;49.97;101133.97;5010328;28;20018;-61
2022/05/16 05:28:52;;;;;;;7.38;4.50;;;;;;;18.77;49.81;101134.72;5011520;28;20061;-61
2022/05/16 05:31:25;;;;;;;11.23;4.93;;;;;;;18.82;49.75;101133.81;5011225;28;20512;-61
2022/05/16 05:33:50;;;;;;;13.15;4.55;;;;;;;18.88;49.43;101118.56;5012588;28;20049;-61
2022/05/16 05:36:16;;;;;;;9.82;4.20;;;;;;;18.94;49.41;101127.75;5011260;28;20085;-61
2022/05/16 05:38:41;;;;;;;10.77;4.15;;;;;;;18.95;49.49;101130.28;5010682;28;20034;-61
2022/05/16 05:41:09;;;;;;;9.02;4.78;;;;;;;18.99;49.19;101136.13;5001235;28;20413;-61
2022/05/16 05:43:35;;;;;;;5.90;3.88;;;;;;;19.04;48.92;101147.31;4998763;28;20029;-61
2022/05/16 05:46:03;;;;;;;8.70;4.10;;;;;;;19.03;48.94;101151.25;5007992;28;20492;-62
2022/05/16 05:48:28;;;;;;;10.25;4.50;;;;;;;19.06;49.18;101150.63;5009165;28;20026;-61
2022/05/16 05:50:54;;;;;;;9.90;4.43;;;;;;;19.14;49.06;101149.97;5006437;28;20113;-62
2022/05/16 05:53:19;;;;;;;8.63;4.03;;;;;;;19.12;49.39;101158.72;5009617;28;20026;-61
2022/05/16 05:55:47;;;;;;;10.82;4.40;;;;;;;19.15;49.75;101154.47;5013304;28;20028;-62
2022/05/16 05:58:14;;;;;;;11.20;4.18;;;;;;;19.15;49.40;101157.28;5008878;28;20030;-61
2022/05/16 06:00:40;;;;;;;10.45;4.35;;;;;;;19.19;49.16;101169.59;5010716;28;20034;-61
2022/05/16 06:03:05;;;;;;;8.23;4.22;;;;;;;19.15;49.12;101162.91;5011580;28;20389;-61
2022/05/16 06:05:30;;;;;;;10.65;4.13;;;;;;;19.20;49.20;101168.44;5010877;28;20057;-61
2022/05/16 06:07:55;;;;;;;10.07;4.43;;;;;;;19.21;49.33;101155.22;5009997;28;20033;-61
2022/05/16 06:10:21;;;;;;;11.90;4.78;;;;;;;19.26;49.21;101169.22;5007856;28;20040;-61
2022/05/16 06:12:46;;;;;;;9.43;3.85;;;;;;;19.29;48.88;101168.59;5004910;28;20046;-61
2022/05/16 06:15:13;;;;;;;11.75;4.40;;;;;;;19.25;49.01;101179.63;5005038;28;20033;-61
2022/05/16 06:17:38;;;;;;;9.43;4.43;;;;;;;19.29;48.71;101175.06;5005799;28;20036;-61
2022/05/16 06:20:05;;;;;;;8.90;4.18;;;;;;;19.33;48.67;101172.47;5018169;28;20033;-62
2022/05/16 06:22:38;;;;;;;7.68;4.22;;;;;;;19.35;48.99;101182.28;5003454;28;20025;-61
2022/05/16 06:27:54;;;;;;;10.90;4.35;;;;;;;19.44;49.25;101184.44;5004862;28;20141;-61
2022/05/16 06:30:19;;;;;;;8.65;4.05;;;;;;;19.46;48.92;101185.81;5008622;28;20128;-60
2022/05/16 06:32:48;;;;;;;9.77;3.90;;;;;;;19.47;49.21;101197.91;5009695;28;20038;-60
2022/05/16 06:35:14;;;;;;;16.95;4.30;;;;;;;19.49;49.98;101185.19;5006286;28;20088;-60
2022/05/16 06:37:40;;;;;;;14.68;4.70;;;;;;;19.60;51.39;101191.50;5008400;28;20064;-60
2022/05/16 06:40:06;;;;;;;7.68;3.50;;;;;;;19.53;49.71;101188.22;5007912;28;20360;-59
2022/05/16 06:42:31;;;;;;;8.55;3.28;;;;;;;19.53;49.64;101189.06;5007416;28;20073;-60
2022/05/16 06:44:57;;;;;;;8.63;3.88;;;;;;;19.55;49.37;101198.03;5001657;28;20507;-61
2022/05/16 06:47:23;;;;;;;11.20;3.80;;;;;;;19.55;49.72;101195.22;5003938;28;20957;-60
2022/05/16 06:49:49;;;;;;;6.57;3.65;;;;;;;19.55;49.98;101198.03;5004923;28;20030;-60
2022/05/16 06:52:16;;;;;;;9.38;4.18;;;;;;;19.60;50.07;101192.31;5004235;28;20556;-61
2022/05/16 06:54:41;;;;;;;8.75;2.78;;;;;;;19.74;49.99;101192.44;5000534;28;20029;-62
2022/05/16 06:57:07;;;;;;;11.23;3.72;;;;;;;19.76;50.17;101195.75;5005949;28;20037;-62
2022/05/16 06:59:32;;;;;;;9.73;3.13;;;;;;;19.81;49.90;101198.50;5006849;28;20109;-62
2022/05/16 07:01:57;;;;;;;8.52;3.22;;;;;;;19.89;49.69;101198.97;5005413;28;20723;-60
2022/05/16 07:04:22;;;;;;;6.70;3.30;;;;;;;19.94;50.13;101201.69;5003396;28;20029;-61
2022/05/16 07:06:48;;;;;;;9.02;2.95;;;;;;;19.99;49.62;101208.06;5009627;28;20508;-61
2022/05/16 07:09:13;;;;;;;8.57;2.80;;;;;;;20.03;49.85;101200.66;5009172;28;20045;-61
2022/05/16 07:11:38;;;;;;;14.90;3.30;;;;;;;20.11;49.82;101205.59;5008721;28;20493;-62
2022/05/16 07:14:03;;;;;;;7.35;3.28;;;;;;;20.12;50.12;101209.22;5011885;28;20121;-62
2022/05/16 07:16:32;;;;;;;9.45;3.60;;;;;;;20.07;50.18;101212.16;5008985;28;20143;-62
2022/05/16 07:18:57;;;;;;;6.13;3.67;;;;;;;20.06;49.85;101211.31;5005627;28;20054;-62
2022/05/16 07:21:22;;;;;;;7.15;3.03;;;;;;;20.16;49.96;101215.94;5011181;28;20507;-61
2022/05/16 07:23:48;;;;;;;5.75;3.17;;;;;;;20.18;50.41;101212.81;5004764;28;20027;-62
2022/05/16 07:28:57;;;;;;;7.55;3.17;;;;;;;20.22;51.15;101214.69;5004664;28;20105;-62
2022/05/16 07:31:22;;;;;;;7.50;3.40;;;;;;;20.25;50.50;101213.25;5012950;28;20482;-61
2022/05/16 07:33:47;;;;;;;7.45;3.35;;;;;;;20.29;51.14;101214.31;5013440;28;20098;-61
2022/05/16 07:36:16;;;;;;;5.25;2.55;;;;;;;20.38;50.51;101211.59;5009783;28;20042;-62
2022/05/16 07:38:44;;;;;;;6.43;3.72;;;;;;;20.36;51.44;101217.56;5012155;28;20056;-61
2022/05/16 07:41:13;;;;;;;8.45;3.67;;;;;;;20.39;51.04;101221.72;5011909;28;20575;-61
2022/05/16 07:43:38;;;;;;;7.70;3.20;;;;;;;20.51;50.33;101222.91;5010589;28;20108;-62
2022/05/16 07:46:07;;;;;;;8.77;3.33;;;;;;;20.48;51.05;101229.19;5012958;28;20418;-62
2022/05/16 07:48:33;;;;;;;11.75;3.45;;;;;;;20.51;51.43;101230.53;5011661;28;20417;-61
2022/05/16 07:50:58;;;;;;;9.68;3.03;;;;;;;20.53;50.31;101220.66;5002167;28;20435;-61
2022/05/16 07:53:23;;;;;;;6.28;2.88;;;;;;;20.60;50.33;101231.53;5006505;28;20105;-62
2022/05/16 07:55:51;;;;;;;7.57;2.83;;;;;;;20.58;51.24;101230.97;4998513;28;20045;-62
2022/05/16 07:58:17;;;;;;;7.82;3.20;;;;;;;20.62;51.79;101229.22;5012383;28;20405;-62
2022/05/16 08:00:43;;;;;;;6.78;3.00;;;;;;;20.64;51.31;101232.56;5010788;28;20036;-63
2022/05/16 08:03:11;;;;;;;5.45;2.85;;;;;;;20.67;51.30;101237.59;5000621;28;20037;-62
2022/05/16 08:05:36;;;;;;;8.85;3.15;;;;;;;20.85;50.19;101238.63;5002766;28;21496;-62
2022/05/16 08:10:46;;;;;;;8.50;3.20;;;;;;;21.21;50.71;101238.72;5008364;28;20042;-63
2022/05/16 08:13:11;;;;;;;7.93;3.00;;;;;;;21.27;50.00;101240.28;5009782;28;20041;-62
2022/05/16 08:15:39;;;;;;;5.85;2.83;;;;;;;21.32;50.10;101243.03;5003184;28;20040;-65
2022/05/16 08:18:09;;;;;;;7.28;3.15;;;;;;;21.36;51.02;101236.75;5008908;28;20542;-64
2022/05/16 08:20:37;;;;;;;10.85;3.00;;;;;;;21.45;50.71;101241.31;5011478;28;20469;-63
2022/05/16 08:23:03;;;;;;;7.03;2.92;;;;;;;21.56;50.21;101253.22;5008278;28;20038;-63
2022/05/16 08:25:28;;;;;;;9.38;3.42;;;;;;;21.64;50.45;101248.81;5007080;28;20025;-64
2022/05/16 08:27:53;;;;;;;5.93;2.90;;;;;;;21.83;50.72;101251.47;5009407;28;20034;-63
2022/05/16 08:30:23;;;;;;;6.53;2.80;;;;;;;22.03;50.31;101253.78;5011116;28;20037;-63
2022/05/16 08:32:49;;;;;;;5.90;2.75;;;;;;;22.21;49.61;101266.94;5010443;28;20474;-63
2022/05/16 08:35:16;;;;;;;9.15;2.90;;;;;;;22.38;48.96;101248.41;5010999;28;20054;-64
2022/05/16 08:40:53;;;;;;;13.15;3.33;;;;;;;22.69;48.56;101252.09;5005770;28;20075;-64
2022/05/16 08:43:32;;;;;;;16.33;3.45;;;;;;;22.84;47.82;101252.81;5010131;28;20034;-63
2022/05/16 08:46:23;;;;;;;8.18;2.78;;;;;;;22.99;47.92;101253.25;5010968;28;20084;-64
2022/05/16 08:48:55;;;;;;;6.72;2.60;;;;;;;23.13;47.31;101247.44;5011255;28;20037;-64
2022/05/16 08:51:31;;;;;;;8.13;2.78;;;;;;;23.25;47.73;101241.97;5013001;28;20420;-64
2022/05/16 08:54:37;;;;;;;8.10;2.50;;;;;;;23.38;47.29;101245.00;5008297;28;20125;-64
2022/05/16 08:57:08;;;;;;;6.03;3.10;;;;;;;23.59;46.65;101248.88;5004509;28;20568;-62
2022/05/16 08:59:36;;;;;;;9.02;2.40;;;;;;;23.69;46.65;101253.41;5008184;28;20099;-63
2022/05/16 09:02:10;;;;;;;7.78;2.58;;;;;;;23.84;46.65;101241.59;5008567;28;20370;-65
2022/05/16 09:04:46;;;;;;;7.20;2.83;;;;;;;23.94;45.97;101244.09;5006619;28;20032;-63
2022/05/16 09:07:34;;;;;;;5.38;2.28;;;;;;;24.03;45.91;101246.09;4998012;28;20129;-64
2022/05/16 09:10:13;;;;;;;5.63;2.40;;;;;;;24.14;45.85;101239.75;5007751;28;20057;-64
2022/05/16 09:12:53;;;;;;;10.27;2.78;;;;;;;24.29;45.66;101240.38;5008098;28;20045;-64
2022/05/16 09:15:39;;;;;;;5.93;2.42;;;;;;;24.37;45.06;101245.22;4997265;28;20168;-64
2022/05/16 09:18:09;;;;;;;5.60;2.80;;;;;;;24.36;44.41;101252.03;5010426;28;20028;-64
2022/05/16 09:21:04;;;;;;;7.38;2.72;;;;;;;24.40;44.58;101245.38;5009980;28;20025;-63
2022/05/16 09:23:41;;;;;;;3.80;2.13;;;;;;;24.45;44.31;101255.75;4999020;28;20042;-64
2022/05/16 09:26:28;;;;;;;5.13;2.53;;;;;;;24.53;44.61;101251.22;5011790;28;20080;-65
2022/05/16 09:29:01;;;;;;;7.50;2.58;;;;;;;24.59;44.37;101250.66;5002123;28;20583;-64
2022/05/16 09:31:31;;;;;;;6.82;2.83;;;;;;;24.84;44.56;101239.59;5000254;28;20504;-64
2022/05/16 09:33:59;;;;;;;6.15;2.58;;;;;;;24.84;44.30;101256.63;4997826;28;20030;-65
2022/05/16 09:36:42;;;;;;;4.70;2.47;;;;;;;24.86;43.94;101257.09;5007666;28;20042;-65
2022/05/16 09:39:10;;;;;;;8.48;2.90;;;;;;;24.90;44.03;101267.44;5006943;28;20045;-65
2022/05/16 09:42:10;;;;;;;6.10;2.88;;;;;;;24.92;44.30;101253.75;4998768;28;20489;-65
2022/05/16 09:44:43;;;;;;;6.38;2.65;;;;;;;25.03;44.21;101254.16;5006006;28;20033;-65
2022/05/16 09:47:44;;;;;;;8.07;2.97;;;;;;;25.10;44.21;101265.88;5005011;28;20037;-64
2022/05/16 09:50:23;;;;;;;7.10;3.03;;;;;;;25.20;43.80;101270.34;5009031;28;20052;-64
2022/05/16 09:53:09;;;;;;;6.63;2.70;;;;;;;25.24;43.35;101267.66;5010331;28;20042;-64
2022/05/16 09:55:41;;;;;;;6.10;2.60;;;;;;;25.39;43.16;101281.28;5002643;28;20034;-64
2022/05/16 09:58:22;;;;;;;10.80;2.85;;;;;;;25.33;43.07;101285.47;5000330;28;20037;-63
2022/05/16 10:00:55;;;;;;;11.38;2.92;;;;;;;25.36;43.06;101297.00;5006212;28;21163;-64
2022/05/16 10:03:34;;;;;;;10.93;3.25;;;;;;;25.32;43.08;101310.22;5000573;28;20558;-64
2022/05/16 10:06:04;;;;;;;9.27;3.03;;;;;;;25.27;43.14;101303.88;5008298;28;20454;-63
2022/05/16 10:08:32;;;;;;;11.07;3.47;;;;;;;25.24;43.80;101307.44;5009790;28;20057;-63
2022/05/16 10:11:02;;;;;;;11.45;3.65;;;;;;;25.11;43.74;101303.63;5010036;28;20025;-63
2022/05/16 10:13:28;;;;;;;7.88;3.38;;;;;;;25.05;43.89;101302.97;5007671;28;20033;-64
2022/05/16 10:15:56;;;;;;;5.53;3.03;;;;;;;24.95;44.25;101311.84;5009988;28;20500;-64
2022/05/16 10:18:24;;;;;;;9.27;3.50;;;;;;;24.80;44.26;101320.91;4992921;28;20101;-64
2022/05/16 10:20:58;;;;;;;8.23;3.42;;;;;;;24.72;45.22;101326.28;5009082;28;20034;-64
2022/05/16 10:23:29;;;;;;;10.98;3.65;;;;;;;24.60;45.52;101326.16;5008405;28;20025;-63
2022/05/16 10:25:59;;;;;;;8.93;3.20;;;;;;;24.43;47.42;101346.03;5000475;28;20151;-65
2022/05/16 10:28:30;;;;;;;21.85;3.92;;;;;;;24.33;48.67;101360.53;5006556;28;20030;-63
2022/05/16 10:33:46;;;;;;;12.02;4.15;;;;;;;23.93;52.22;101383.34;5009475;28;20053;-63
2022/05/16 10:36:33;;;;;;;10.18;3.92;;;;;;;23.81;51.22;101388.81;5010039;28;20378;-65
2022/05/16 10:39:15;;;;;;;8.95;3.83;;;;;;;23.60;52.96;101388.56;5010744;28;20096;-66
2022/05/16 10:42:06;;;;;;;10.77;3.60;;;;;;;23.48;52.92;101398.53;5003363;28;20083;-66
2022/05/16 10:44:40;;;;;;;7.70;3.78;;;;;;;23.42;54.89;101396.16;5000880;28;20584;-65
2022/05/16 10:47:16;;;;;;;8.60;4.38;;;;;;;23.46;53.81;101394.34;5011311;28;20033;-65
2022/05/16 10:50:02;;;;;;;9.43;3.28;;;;;;;23.52;53.41;101402.38;5013841;28;20037;-67
2022/05/16 10:52:46;;;;;;;6.38;3.83;;;;;;;23.68;55.24;101399.13;5011528;28;20048;-66
2022/05/16 10:55:13;;;;;;;6.93;3.95;;;;;;;23.80;53.67;101405.00;5009735;28;20025;-65
2022/05/16 10:58:10;;;;;;;10.77;4.28;;;;;;;23.82;52.26;101405.50;5010658;28;20142;-65
2022/05/16 11:00:45;;;;;;;10.55;4.85;;;;;;;23.73;52.51;101405.47;5009737;28;20034;-66
2022/05/16 11:03:38;;;;;;;9.90;4.80;;;;;;;23.69;52.48;101410.13;5010165;28;20061;-65
2022/05/16 11:06:27;;;;;;;8.70;4.25;;;;;;;23.69;51.34;101414.97;5009169;28;20025;-66
2022/05/16 11:09:09;;;;;;;9.75;4.25;;;;;;;23.66;51.23;101415.66;5007584;28;20108;-63
2022/05/16 11:12:11;;;;;;;10.73;5.03;;;;;;;23.59;51.23;101413.25;5008124;28;20050;-65
2022/05/16 11:14:47;;;;;;;11.05;4.45;;;;;;;23.55;51.46;101415.06;5010977;28;20029;-64
2022/05/16 11:17:23;;;;;;;9.80;5.07;;;;;;;23.54;51.96;101416.22;5010885;28;20515;-65
2022/05/16 11:20:07;;;;;;;9.35;4.60;;;;;;;23.53;51.77;101414.53;5009500;28;20035;-65
2022/05/16 11:22:52;;;;;;;7.80;4.50;;;;;;;23.52;51.92;101418.53;5011097;28;20073;-65
2022/05/16 11:25:46;;;;;;;9.48;4.03;;;;;;;23.55;51.93;101426.41;5010287;28;20018;-64
2022/05/16 11:28:19;;;;;;;9.68;4.70;;;;;;;23.50;52.79;101421.72;5009936;28;20033;-61
2022/05/16 11:30:55;;;;;;;10.63;5.20;;;;;;;23.47;52.24;101430.03;5009538;28;20080;-62
2022/05/16 11:33:47;;;;;;;12.38;4.60;;;;;;;23.46;52.52;101428.34;5008465;28;20762;-63
2022/05/16 11:36:32;;;;;;;10.30;6.38;;;;;;;23.33;57.79;101427.28;5010019;28;20129;-63
2022/05/16 11:39:13;;;;;;;10.55;6.03;;;;;;;23.27;56.10;101432.28;5004255;28;20046;-63
2022/05/16 11:41:55;;;;;;;10.52;6.25;;;;;;;23.25;56.49;101437.41;5013059;28;20382;-65
2022/05/16 11:44:30;;;;;;;8.73;5.25;;;;;;;23.28;55.71;101436.75;5013622;28;20068;-64
2022/05/16 11:47:17;;;;;;;9.32;5.63;;;;;;;23.31;54.90;101438.13;5002856;28;20022;-66
2022/05/16 11:49:51;;;;;;;13.00;6.05;;;;;;;23.26;54.35;101430.59;5010553;28;20033;-64
2022/05/16 11:52:31;;;;;;;11.65;5.57;;;;;;;23.25;53.74;101434.56;5009322;28;21058;-66
2022/05/16 11:55:01;;;;;;;8.85;5.18;;;;;;;23.24;53.46;101444.25;5010356;28;20029;-64
2022/05/16 12:03:08;;;;;;;10.27;4.90;;;;;;;23.26;53.58;101453.25;4993473;28;20129;-63
2022/05/16 12:05:36;;;;;;;15.18;9.27;;;;;;;23.18;54.94;101456.03;4994381;28;20030;-63
2022/05/16 12:08:13;;;;;;;15.48;9.27;;;;;;;23.12;55.35;101461.00;4993322;28;20062;-64
2022/05/16 12:11:21;;;;;;;17.50;9.57;;;;;;;23.09;54.84;101475.78;5006298;28;20026;-64
2022/05/16 12:14:04;;;;;;;15.25;9.63;;;;;;;23.00;55.58;101464.41;4951606;29;20052;-63